Time;durP1;ratioP1;P1;durP2;ratioP2;P2;SDS_P1;SDS_P2;PMS_P1;PMS_P2;Temp;Humidity;BMP_temperature;BMP_pressure;BME280_temperature;BME280_humidity;BME280_pressure;Samples;Min_cycle;Max_cycle;Signal;HPM_P1;HPM_P2
2023/07/30 00:00:50;;;;;;;7.35;5.03;;;15.70;99.90;;;;;;4989634;28;20031;-66
2023/07/30 00:03:15;;;;;;;8.85;5.38;;;15.70;99.90;;;;;;4987430;28;20030;-65
2023/07/30 00:05:41;;;;;;;11.48;5.13;;;15.70;99.90;;;;;;4992328;28;20030;-65
2023/07/30 00:08:06;;;;;;;11.60;5.07;;;15.60;99.90;;;;;;4980850;28;20062;-65
2023/07/30 00:10:32;;;;;;;8.90;5.88;;;15.50;99.90;;;;;;4985188;28;20045;-64
2023/07/30 00:12:58;;;;;;;6.75;5.50;;;15.50;99.90;;;;;;4989909;28;20030;-66
2023/07/30 00:15:23;;;;;;;11.30;5.32;;;15.40;99.90;;;;;;4981492;28;20054;-65
2023/07/30 00:17:49;;;;;;;8.55;5.80;;;15.40;99.90;;;;;;4984255;28;20030;-65
2023/07/30 00:20:14;;;;;;;8.05;5.82;;;15.40;99.90;;;;;;4981152;28;20106;-65
2023/07/30 00:22:40;;;;;;;10.38;6.22;;;15.40;99.90;;;;;;4989805;28;20455;-65
2023/07/30 00:25:06;;;;;;;10.27;6.28;;;15.40;99.90;;;;;;4990149;28;20117;-65
2023/07/30 00:27:31;;;;;;;11.77;6.00;;;15.30;99.90;;;;;;4991787;28;20077;-66
2023/07/30 00:29:57;;;;;;;8.70;6.20;;;15.30;99.90;;;;;;4972581;28;20045;-65
2023/07/30 00:32:22;;;;;;;9.88;6.60;;;15.20;99.90;;;;;;4974307;28;20534;-65
2023/07/30 00:34:48;;;;;;;9.65;6.10;;;15.20;99.90;;;;;;4981279;28;20023;-65
2023/07/30 00:37:14;;;;;;;16.73;6.07;;;15.20;99.90;;;;;;4978519;28;20022;-65
2023/07/30 00:39:39;;;;;;;13.50;5.93;;;15.20;99.90;;;;;;4990480;28;20487;-65
2023/07/30 00:42:05;;;;;;;15.75;6.20;;;15.20;99.90;;;;;;4990671;28;20041;-65
2023/07/30 00:44:31;;;;;;;11.43;6.03;;;15.20;99.90;;;;;;4973628;28;20399;-63
2023/07/30 00:46:56;;;;;;;10.80;5.97;;;15.20;99.90;;;;;;4975567;28;20106;-65
2023/07/30 00:49:22;;;;;;;10.63;6.10;;;15.10;99.90;;;;;;4984942;28;20427;-65
2023/07/30 00:51:48;;;;;;;10.50;6.07;;;15.10;99.90;;;;;;4988809;28;20031;-65
2023/07/30 00:54:13;;;;;;;10.10;6.57;;;15.10;99.90;;;;;;4988332;28;20114;-65
2023/07/30 00:56:47;;;;;;;12.48;6.68;;;15.00;99.90;;;;;;4969905;28;20057;-65
2023/07/30 00:59:12;;;;;;;11.95;6.95;;;15.00;99.90;;;;;;4973665;28;20117;-65
2023/07/30 01:01:41;;;;;;;11.20;6.32;;;15.00;99.90;;;;;;4990245;28;20138;-65
2023/07/30 01:04:07;;;;;;;9.15;5.40;;;15.00;99.90;;;;;;4990087;28;20109;-65
2023/07/30 01:06:33;;;;;;;8.85;5.82;;;15.00;99.90;;;;;;4971845;28;20122;-62
2023/07/30 01:08:59;;;;;;;9.20;6.13;;;15.00;99.90;;;;;;4986125;28;20030;-65
2023/07/30 01:11:26;;;;;;;13.65;5.93;;;15.00;99.90;;;;;;4985687;28;20077;-65
2023/07/30 01:13:52;;;;;;;8.10;5.85;;;15.10;99.90;;;;;;4979314;28;20499;-65
2023/07/30 01:16:17;;;;;;;8.75;5.75;;;15.10;99.90;;;;;;4987838;28;20034;-65
2023/07/30 01:18:43;;;;;;;8.80;5.72;;;15.00;99.90;;;;;;4987995;28;20416;-65
2023/07/30 01:21:08;;;;;;;10.68;5.60;;;15.00;99.90;;;;;;4978397;28;20026;-65
2023/07/30 01:23:34;;;;;;;7.85;5.50;;;14.90;99.90;;;;;;4987475;28;20038;-66
2023/07/30 01:26:06;;;;;;;13.60;6.32;;;14.90;99.90;;;;;;4971886;28;20030;-64
2023/07/30 01:28:47;;;;;;;7.47;4.78;;;14.90;99.90;;;;;;4984070;28;20024;-60
2023/07/30 01:31:17;;;;;;;6.78;5.75;;;14.90;99.90;;;;;;4990266;28;20027;-65
2023/07/30 01:33:46;;;;;;;10.00;5.45;;;14.90;99.90;;;;;;4987847;28;20018;-65
2023/07/30 01:36:15;;;;;;;10.50;6.18;;;14.90;99.90;;;;;;4976881;28;20027;-65
2023/07/30 01:38:42;;;;;;;12.63;5.85;;;15.00;99.90;;;;;;4982825;28;20018;-65
2023/07/30 01:41:09;;;;;;;8.48;5.53;;;15.00;99.90;;;;;;4989162;28;20106;-65
2023/07/30 01:43:34;;;;;;;10.55;6.00;;;15.10;99.90;;;;;;4985694;28;20030;-65
2023/07/30 01:46:00;;;;;;;10.75;6.10;;;15.20;99.90;;;;;;4988490;28;20559;-65
2023/07/30 01:48:27;;;;;;;9.73;5.72;;;15.20;99.90;;;;;;4989856;28;20057;-66
2023/07/30 01:50:52;;;;;;;8.48;5.63;;;15.30;99.90;;;;;;4989229;28;20049;-64
2023/07/30 01:53:18;;;;;;;8.93;5.80;;;15.40;99.90;;;;;;4988193;28;20049;-63
2023/07/30 01:55:45;;;;;;;11.80;7.25;;;15.40;99.90;;;;;;4967808;28;20034;-64
2023/07/30 01:58:12;;;;;;;11.65;6.85;;;15.40;99.90;;;;;;4988717;28;20034;-64
2023/07/30 02:00:37;;;;;;;11.63;7.13;;;15.50;99.90;;;;;;4989346;28;20022;-63
2023/07/30 02:03:03;;;;;;;13.15;6.93;;;15.50;99.90;;;;;;4980572;28;20362;-63
2023/07/30 02:05:28;;;;;;;10.60;6.38;;;15.50;99.90;;;;;;4978325;28;20476;-63
2023/07/30 02:07:54;;;;;;;10.10;7.10;;;15.50;99.90;;;;;;4988802;28;20427;-63
2023/07/30 02:10:19;;;;;;;10.73;6.43;;;15.60;99.90;;;;;;4989608;28;20081;-64
2023/07/30 02:12:45;;;;;;;10.23;6.43;;;15.60;99.90;;;;;;4977967;28;20031;-64
2023/07/30 02:15:11;;;;;;;11.52;6.00;;;15.70;99.90;;;;;;4979181;28;20038;-64
2023/07/30 02:17:36;;;;;;;12.50;6.15;;;15.60;99.90;;;;;;4969123;28;20038;-64
2023/07/30 02:20:02;;;;;;;9.93;5.70;;;15.60;99.90;;;;;;4989836;28;20029;-63
2023/07/30 02:22:28;;;;;;;7.65;4.57;;;15.70;99.90;;;;;;4985750;28;20026;-64
2023/07/30 02:24:53;;;;;;;9.77;5.35;;;15.70;99.90;;;;;;4992614;28;20033;-63
2023/07/30 02:27:19;;;;;;;7.82;5.50;;;15.70;99.90;;;;;;4993379;28;20041;-64
2023/07/30 02:29:45;;;;;;;8.48;5.07;;;15.70;99.90;;;;;;4975799;28;20049;-64
2023/07/30 02:32:10;;;;;;;9.13;4.72;;;15.70;99.90;;;;;;4984485;28;20030;-64
2023/07/30 02:34:36;;;;;;;7.00;4.07;;;15.70;99.90;;;;;;4993028;28;20518;-63
2023/07/30 02:37:01;;;;;;;13.82;4.45;;;15.70;99.90;;;;;;4984668;28;20109;-63
2023/07/30 02:39:27;;;;;;;7.60;4.35;;;15.70;99.90;;;;;;4978906;28;20023;-64
2023/07/30 02:41:52;;;;;;;5.57;3.97;;;15.70;99.90;;;;;;4993647;28;20031;-64
2023/07/30 02:44:18;;;;;;;5.20;3.90;;;15.70;99.90;;;;;;4989824;28;20105;-64
2023/07/30 02:46:44;;;;;;;8.65;3.95;;;15.70;99.90;;;;;;4980016;28;20018;-61
2023/07/30 02:49:09;;;;;;;9.70;3.67;;;15.70;99.90;;;;;;4988625;28;20027;-63
2023/07/30 02:51:35;;;;;;;11.10;3.67;;;15.70;99.90;;;;;;4985125;28;20109;-63
2023/07/30 02:54:04;;;;;;;6.20;4.18;;;15.70;99.90;;;;;;4990776;28;20030;-63
2023/07/30 02:56:30;;;;;;;6.50;3.55;;;15.70;99.90;;;;;;4992218;28;20368;-63
2023/07/30 02:58:57;;;;;;;5.85;4.43;;;15.70;99.90;;;;;;4993097;28;20101;-63
2023/07/30 03:01:22;;;;;;;5.38;3.83;;;15.70;99.90;;;;;;4981430;28;20015;-63
2023/07/30 03:03:48;;;;;;;4.53;3.45;;;15.70;99.90;;;;;;4982681;28;20558;-63
2023/07/30 03:06:14;;;;;;;6.35;3.67;;;15.70;99.90;;;;;;4992693;28;20034;-63
2023/07/30 03:08:39;;;;;;;14.25;3.92;;;15.70;99.90;;;;;;4988174;28;20026;-63
2023/07/30 03:11:05;;;;;;;7.90;3.65;;;15.70;99.90;;;;;;4992111;28;20023;-63
2023/07/30 03:13:30;;;;;;;6.18;3.78;;;15.70;99.90;;;;;;4984621;28;20022;-63
2023/07/30 03:15:56;;;;;;;8.73;3.83;;;15.70;99.90;;;;;;4987643;28;20027;-63
2023/07/30 03:18:22;;;;;;;8.75;4.47;;;15.70;99.90;;;;;;4975054;28;20389;-63
2023/07/30 03:20:47;;;;;;;5.65;3.72;;;15.70;99.90;;;;;;4972498;28;20077;-62
2023/07/30 03:23:13;;;;;;;8.88;3.40;;;15.70;99.90;;;;;;4986148;28;20061;-63
2023/07/30 03:25:39;;;;;;;6.95;3.33;;;15.70;99.90;;;;;;4991625;28;20022;-63
2023/07/30 03:28:05;;;;;;;4.97;3.47;;;15.70;99.90;;;;;;4991800;28;20076;-63
2023/07/30 03:30:30;;;;;;;8.45;3.58;;;15.70;99.90;;;;;;4992619;28;20027;-63
2023/07/30 03:32:56;;;;;;;12.80;3.55;;;15.70;99.90;;;;;;4981007;28;20030;-63
2023/07/30 03:35:21;;;;;;;6.88;3.55;;;15.70;99.90;;;;;;4983362;28;20539;-64
2023/07/30 03:37:47;;;;;;;3.72;3.13;;;15.70;99.90;;;;;;4986515;28;20049;-63
2023/07/30 03:40:13;;;;;;;9.70;2.80;;;15.70;99.90;;;;;;4990698;28;20034;-64
2023/07/30 03:42:38;;;;;;;4.25;3.28;;;15.70;99.90;;;;;;4992527;28;20400;-63
2023/07/30 03:45:05;;;;;;;8.55;3.45;;;15.70;99.90;;;;;;4983577;28;20037;-64
2023/07/30 03:47:30;;;;;;;5.32;2.58;;;15.70;99.90;;;;;;4982078;28;20117;-64
2023/07/30 03:49:56;;;;;;;8.65;4.03;;;15.70;99.90;;;;;;4985960;28;20472;-64
2023/07/30 03:52:21;;;;;;;10.13;3.20;;;15.70;99.90;;;;;;4990622;28;20389;-63
2023/07/30 03:54:47;;;;;;;8.07;4.05;;;15.70;99.90;;;;;;4990437;28;20459;-63
2023/07/30 03:57:12;;;;;;;5.68;3.22;;;15.70;99.90;;;;;;4978992;28;20029;-64
2023/07/30 03:59:38;;;;;;;8.68;3.45;;;15.70;99.90;;;;;;4990576;28;20101;-63
2023/07/30 04:02:04;;;;;;;6.68;3.08;;;15.70;99.90;;;;;;4992464;28;20027;-63
2023/07/30 04:04:30;;;;;;;6.63;3.22;;;15.70;99.90;;;;;;4971871;28;20461;-64
2023/07/30 04:06:55;;;;;;;7.55;3.28;;;15.70;99.90;;;;;;4992584;28;20105;-64
2023/07/30 04:09:21;;;;;;;12.45;3.45;;;15.70;99.90;;;;;;4989859;28;20103;-63
2023/07/30 04:11:46;;;;;;;4.60;2.83;;;15.70;99.90;;;;;;4974922;28;20479;-62
2023/07/30 04:14:12;;;;;;;4.90;2.72;;;15.70;99.90;;;;;;4982182;28;20034;-63
2023/07/30 04:16:38;;;;;;;7.28;3.13;;;15.80;99.90;;;;;;4992177;28;20468;-64
2023/07/30 04:19:03;;;;;;;5.57;2.72;;;15.70;99.90;;;;;;4967866;28;20518;-63
2023/07/30 04:21:29;;;;;;;5.95;3.40;;;15.70;99.90;;;;;;4987059;28;20011;-63
2023/07/30 04:23:54;;;;;;;13.48;3.80;;;15.80;99.90;;;;;;4984445;28;20026;-64
2023/07/30 04:26:20;;;;;;;7.60;3.10;;;15.70;99.90;;;;;;4990656;28;20038;-64
2023/07/30 04:28:45;;;;;;;10.77;3.38;;;15.70;99.90;;;;;;4991557;28;20018;-61
2023/07/30 04:31:11;;;;;;;9.15;3.42;;;15.70;99.90;;;;;;4979877;28;20023;-63
2023/07/30 04:33:36;;;;;;;9.55;3.17;;;15.70;99.90;;;;;;4981252;28;20073;-64
2023/07/30 04:36:02;;;;;;;15.02;3.45;;;15.70;99.90;;;;;;4984236;28;20026;-64
2023/07/30 04:38:29;;;;;;;4.70;2.80;;;15.70;99.90;;;;;;4987204;28;20018;-64
2023/07/30 04:40:57;;;;;;;4.45;2.55;;;15.70;99.90;;;;;;4991481;28;20065;-64
2023/07/30 04:43:22;;;;;;;7.70;2.38;;;15.80;99.90;;;;;;4970064;28;20460;-64
2023/07/30 04:45:48;;;;;;;8.35;2.88;;;15.80;99.90;;;;;;4980242;28;20030;-64
2023/07/30 04:48:13;;;;;;;5.40;2.90;;;15.80;99.90;;;;;;4989424;28;20117;-64
2023/07/30 04:50:41;;;;;;;13.65;2.90;;;15.80;99.90;;;;;;4989424;28;20104;-64
2023/07/30 04:53:07;;;;;;;7.03;3.13;;;15.80;99.90;;;;;;4983199;28;20101;-63
2023/07/30 04:55:33;;;;;;;6.45;2.50;;;15.80;99.90;;;;;;4986757;28;20030;-63
2023/07/30 04:57:58;;;;;;;5.45;3.33;;;15.80;99.90;;;;;;4990743;28;20476;-64
2023/07/30 05:00:24;;;;;;;9.60;3.22;;;15.80;99.90;;;;;;4988419;28;20447;-63
2023/07/30 05:02:49;;;;;;;8.45;2.65;;;15.80;99.90;;;;;;4981718;28;20380;-64
2023/07/30 05:05:15;;;;;;;12.38;2.83;;;15.80;99.90;;;;;;4976028;28;20049;-63
2023/07/30 05:07:41;;;;;;;11.90;3.47;;;15.80;99.90;;;;;;4979913;28;20038;-63
2023/07/30 05:10:09;;;;;;;7.28;3.03;;;15.80;99.90;;;;;;4989908;28;20030;-64
2023/07/30 05:12:35;;;;;;;7.50;3.03;;;15.80;99.90;;;;;;4971569;28;20022;-63
2023/07/30 05:15:01;;;;;;;9.68;3.38;;;15.80;99.90;;;;;;4988257;28;20388;-64
2023/07/30 05:17:26;;;;;;;4.57;2.45;;;15.80;99.90;;;;;;4991280;28;20093;-64
2023/07/30 05:19:52;;;;;;;9.15;3.05;;;15.80;99.90;;;;;;4962227;28;20081;-64
2023/07/30 05:22:17;;;;;;;6.40;2.75;;;15.90;99.90;;;;;;4984165;28;20026;-65
2023/07/30 05:24:43;;;;;;;6.57;2.67;;;15.80;99.90;;;;;;4988797;28;20033;-64
2023/07/30 05:27:08;;;;;;;9.70;3.00;;;15.90;99.90;;;;;;4991015;28;20026;-64
2023/07/30 05:29:34;;;;;;;6.63;2.50;;;15.90;99.90;;;;;;4979842;28;20507;-64
2023/07/30 05:32:00;;;;;;;9.55;3.08;;;16.00;99.90;;;;;;4989842;28;20041;-64
2023/07/30 05:34:25;;;;;;;15.02;3.67;;;16.10;99.90;;;;;;4972457;28;20026;-64
2023/07/30 05:36:51;;;;;;;6.53;2.83;;;16.10;99.90;;;;;;4990133;28;20053;-64
2023/07/30 05:39:16;;;;;;;10.20;3.03;;;16.10;99.90;;;;;;4988815;28;20037;-64
2023/07/30 05:41:42;;;;;;;4.80;2.70;;;16.20;99.90;;;;;;4988384;28;20093;-64
2023/07/30 05:44:07;;;;;;;10.02;2.78;;;16.30;99.90;;;;;;4990243;28;20030;-64
2023/07/30 05:46:33;;;;;;;9.45;2.78;;;16.30;99.90;;;;;;4988249;28;20105;-64
2023/07/30 05:48:58;;;;;;;5.75;2.55;;;16.30;99.90;;;;;;4989443;28;20098;-64
2023/07/30 05:51:24;;;;;;;8.73;2.85;;;16.20;99.90;;;;;;4987546;28;20369;-64
2023/07/30 05:53:49;;;;;;;4.90;2.63;;;16.20;99.90;;;;;;4982678;28;20050;-64
2023/07/30 05:56:18;;;;;;;5.20;2.85;;;16.30;99.90;;;;;;4987535;28;20042;-64
2023/07/30 05:58:44;;;;;;;7.38;2.67;;;16.30;99.90;;;;;;4989205;28;20022;-64
2023/07/30 06:01:11;;;;;;;10.73;2.63;;;16.30;99.90;;;;;;4989489;28;20022;-64
2023/07/30 06:03:37;;;;;;;6.03;2.10;;;16.30;99.90;;;;;;4971969;28;20105;-64
2023/07/30 06:06:02;;;;;;;5.18;2.55;;;16.20;99.90;;;;;;4989436;28;20472;-64
2023/07/30 06:08:29;;;;;;;6.72;2.10;;;16.30;99.90;;;;;;4988335;28;20169;-64
2023/07/30 06:10:55;;;;;;;10.32;2.50;;;16.30;99.90;;;;;;4989967;28;20038;-64
2023/07/30 06:13:20;;;;;;;8.68;2.20;;;16.20;99.90;;;;;;4983547;28;20046;-64
2023/07/30 06:15:46;;;;;;;5.75;2.17;;;16.30;99.90;;;;;;4989441;28;20026;-64
2023/07/30 06:18:12;;;;;;;7.72;2.20;;;16.30;99.90;;;;;;4989766;28;20033;-64
2023/07/30 06:20:37;;;;;;;7.53;2.15;;;16.30;99.90;;;;;;4951130;28;20489;-64
2023/07/30 06:23:03;;;;;;;7.80;2.00;;;16.30;99.90;;;;;;4980357;28;20113;-64
2023/07/30 06:25:30;;;;;;;5.22;1.73;;;16.30;99.90;;;;;;4988508;28;20026;-64
2023/07/30 06:27:58;;;;;;;5.47;1.77;;;16.20;99.90;;;;;;4990016;28;20447;-64
2023/07/30 06:30:24;;;;;;;5.63;2.13;;;16.20;99.90;;;;;;4977670;28;20114;-64
2023/07/30 06:32:50;;;;;;;5.90;1.88;;;16.20;99.90;;;;;;4989922;28;20441;-62
2023/07/30 06:35:15;;;;;;;4.53;1.73;;;16.10;99.90;;;;;;4988750;28;20046;-64
2023/07/30 06:37:41;;;;;;;9.05;2.00;;;16.10;99.90;;;;;;4988578;28;20034;-64
2023/07/30 06:40:07;;;;;;;6.03;2.50;;;16.00;99.90;;;;;;4988539;28;20026;-64
2023/07/30 06:42:33;;;;;;;10.15;2.78;;;15.90;99.90;;;;;;4990051;28;20018;-64
2023/07/30 06:44:59;;;;;;;9.02;2.20;;;15.90;99.90;;;;;;4977873;28;20019;-68
2023/07/30 06:47:24;;;;;;;4.85;2.28;;;15.80;99.90;;;;;;4981011;28;20034;-64
2023/07/30 06:49:50;;;;;;;5.65;2.05;;;15.80;99.90;;;;;;4984968;28;20802;-64
2023/07/30 06:52:15;;;;;;;5.57;1.80;;;15.90;99.90;;;;;;4979528;28;20034;-64
2023/07/30 06:54:41;;;;;;;6.70;1.90;;;15.90;99.90;;;;;;4985042;28;20019;-64
2023/07/30 06:57:07;;;;;;;8.30;2.33;;;15.90;99.90;;;;;;4978750;28;20095;-63
2023/07/30 06:59:34;;;;;;;5.28;1.83;;;16.00;99.90;;;;;;4969697;28;20080;-64
2023/07/30 07:01:59;;;;;;;11.70;2.90;;;15.90;99.90;;;;;;4969093;28;20023;-64
2023/07/30 07:04:25;;;;;;;7.07;2.13;;;16.00;99.90;;;;;;4975475;28;20018;-64
2023/07/30 07:06:51;;;;;;;7.25;2.35;;;15.90;99.90;;;;;;4977487;28;20073;-62
2023/07/30 07:09:17;;;;;;;5.00;1.60;;;16.00;99.90;;;;;;4988646;28;20499;-64
2023/07/30 07:11:43;;;;;;;10.80;2.78;;;16.10;99.90;;;;;;4992262;28;20026;-63
2023/07/30 07:14:09;;;;;;;7.25;1.90;;;16.10;99.90;;;;;;4986259;28;20029;-64
2023/07/30 07:16:34;;;;;;;6.93;1.90;;;16.10;99.90;;;;;;4979541;28;20438;-64
2023/07/30 07:19:00;;;;;;;7.47;2.63;;;16.10;99.90;;;;;;4985865;28;20026;-64
2023/07/30 07:21:26;;;;;;;5.38;2.15;;;16.20;99.90;;;;;;4969598;28;20043;-64
2023/07/30 07:23:52;;;;;;;4.07;1.73;;;16.20;99.90;;;;;;4985685;28;20480;-64
2023/07/30 07:26:17;;;;;;;5.00;1.77;;;16.30;99.90;;;;;;4992208;28;20034;-64
2023/07/30 07:28:43;;;;;;;9.10;2.10;;;16.40;99.90;;;;;;4991617;28;20455;-64
2023/07/30 07:31:08;;;;;;;7.85;2.58;;;16.50;99.90;;;;;;4992821;28;20065;-64
2023/07/30 07:33:34;;;;;;;6.78;1.95;;;16.60;99.90;;;;;;4979403;28;20030;-63
2023/07/30 07:36:05;;;;;;;5.85;2.42;;;16.50;99.90;;;;;;4980174;28;20023;-64
2023/07/30 07:38:32;;;;;;;4.90;1.90;;;16.60;99.90;;;;;;4983523;28;20078;-63
2023/07/30 07:40:57;;;;;;;8.55;1.83;;;16.70;99.90;;;;;;4974854;28;20026;-64
2023/07/30 07:43:24;;;;;;;4.25;1.73;;;16.80;99.90;;;;;;4979014;28;20037;-65
2023/07/30 07:45:50;;;;;;;6.82;1.88;;;16.90;99.90;;;;;;4986640;28;20105;-64
2023/07/30 07:48:16;;;;;;;7.80;1.55;;;17.00;99.90;;;;;;4986833;28;20184;-64
2023/07/30 07:50:41;;;;;;;6.53;1.83;;;17.10;99.90;;;;;;4989767;28;20081;-64
2023/07/30 07:53:07;;;;;;;11.30;2.03;;;17.20;99.90;;;;;;4982316;28;20502;-64
2023/07/30 07:55:32;;;;;;;2.28;1.40;;;17.40;99.90;;;;;;4989275;28;20038;-64
2023/07/30 07:57:58;;;;;;;8.85;1.58;;;17.50;99.90;;;;;;4990886;28;20030;-64
2023/07/30 08:00:24;;;;;;;5.50;1.52;;;17.50;99.90;;;;;;4991254;28;20113;-64
2023/07/30 08:02:49;;;;;;;3.47;1.48;;;17.60;99.90;;;;;;4973794;28;20023;-63
2023/07/30 08:05:15;;;;;;;6.57;1.55;;;17.60;99.90;;;;;;4987276;28;20054;-64
2023/07/30 08:07:41;;;;;;;8.27;1.58;;;17.60;99.90;;;;;;4989465;28;20380;-64
2023/07/30 08:10:07;;;;;;;4.82;1.58;;;17.60;99.90;;;;;;4990222;28;20105;-64
2023/07/30 08:12:33;;;;;;;6.65;1.55;;;17.50;99.90;;;;;;4991267;28;20397;-64
2023/07/30 08:14:59;;;;;;;8.30;2.53;;;17.60;99.90;;;;;;4981943;28;20105;-64
2023/07/30 08:17:25;;;;;;;5.70;1.90;;;17.40;99.90;;;;;;4980721;28;20030;-64
2023/07/30 08:19:50;;;;;;;7.72;1.70;;;17.30;99.90;;;;;;4989976;28;20023;-64
2023/07/30 08:22:16;;;;;;;13.45;1.80;;;17.20;99.90;;;;;;4970367;28;20038;-64
2023/07/30 08:24:41;;;;;;;6.80;2.10;;;17.20;99.90;;;;;;4987504;28;20041;-64
2023/07/30 08:27:07;;;;;;;8.10;2.42;;;17.30;99.90;;;;;;4991272;28;20034;-64
2023/07/30 08:29:32;;;;;;;6.85;1.55;;;17.40;99.90;;;;;;4990224;28;20027;-64
2023/07/30 08:31:58;;;;;;;4.45;1.48;;;17.50;99.90;;;;;;4970933;28;20050;-64
2023/07/30 08:34:24;;;;;;;9.15;1.85;;;17.60;99.90;;;;;;4977220;28;20039;-64
2023/07/30 08:36:49;;;;;;;6.40;1.92;;;17.70;99.90;;;;;;4981849;28;20046;-63
2023/07/30 08:39:15;;;;;;;6.88;2.20;;;18.00;99.90;;;;;;4988788;28;20035;-64
2023/07/30 08:41:40;;;;;;;5.78;2.10;;;18.30;99.90;;;;;;4983064;28;20081;-64
2023/07/30 08:44:06;;;;;;;7.32;1.65;;;18.70;99.90;;;;;;4975552;28;20443;-64
2023/07/30 08:46:32;;;;;;;7.65;1.67;;;19.00;99.90;;;;;;4980815;28;20080;-64
2023/07/30 08:48:58;;;;;;;6.68;1.52;;;19.50;99.90;;;;;;4987976;28;20034;-64
2023/07/30 08:51:25;;;;;;;5.60;1.63;;;20.30;99.90;;;;;;4989652;28;20065;-64
2023/07/30 08:53:52;;;;;;;6.70;1.60;;;20.60;99.90;;;;;;4988321;28;20030;-64
2023/07/30 08:56:18;;;;;;;3.38;1.08;;;20.70;99.90;;;;;;4988919;28;20173;-64
2023/07/30 08:58:44;;;;;;;7.72;1.80;;;20.20;99.90;;;;;;4990745;28;20106;-63
2023/07/30 09:01:12;;;;;;;5.78;1.55;;;20.10;99.90;;;;;;4982054;28;20030;-64
2023/07/30 09:03:39;;;;;;;8.75;1.55;;;19.50;99.90;;;;;;4987121;28;20085;-63
2023/07/30 09:06:05;;;;;;;6.95;1.33;;;19.30;99.90;;;;;;4982444;28;20022;-64
2023/07/30 09:08:32;;;;;;;8.70;1.73;;;20.10;99.90;;;;;;4986542;28;20026;-65
2023/07/30 09:11:10;;;;;;;7.80;2.25;;;21.10;99.90;;;;;;4987408;28;20109;-64
2023/07/30 09:13:41;;;;;;;18.20;2.67;;;21.30;99.90;;;;;;4987919;28;20026;-66
2023/07/30 09:16:11;;;;;;;6.45;1.27;;;21.40;99.90;;;;;;4989162;28;20026;-64
2023/07/30 09:18:46;;;;;;;8.55;1.95;;;21.20;99.90;;;;;;4990038;28;20522;-64
2023/07/30 09:21:15;;;;;;;6.78;1.20;;;21.20;99.90;;;;;;4981466;28;20038;-64
2023/07/30 09:23:42;;;;;;;7.55;1.77;;;20.90;99.90;;;;;;4966736;28;20042;-64
2023/07/30 09:26:07;;;;;;;7.72;1.50;;;20.70;99.90;;;;;;4989557;28;20030;-64
2023/07/30 09:28:33;;;;;;;10.23;2.22;;;20.90;99.90;;;;;;4988729;28;20037;-64
2023/07/30 09:31:07;;;;;;;10.10;2.20;;;21.00;99.90;;;;;;4973797;28;20022;-64
2023/07/30 09:33:33;;;;;;;12.15;2.22;;;21.20;99.90;;;;;;4990252;28;20057;-64
2023/07/30 09:36:02;;;;;;;6.72;1.80;;;21.10;99.90;;;;;;4969968;28;20056;-65
2023/07/30 09:38:30;;;;;;;5.13;1.50;;;21.30;99.90;;;;;;4983691;28;20026;-65
2023/07/30 09:41:01;;;;;;;7.43;1.77;;;22.20;99.90;;;;;;4989085;28;20046;-63
2023/07/30 09:43:32;;;;;;;5.13;1.50;;;22.90;99.90;;;;;;4990149;28;20018;-64
2023/07/30 09:46:02;;;;;;;6.70;1.77;;;23.30;99.90;;;;;;4990036;28;20030;-64
2023/07/30 09:48:32;;;;;;;10.73;1.60;;;23.00;99.90;;;;;;4987302;28;20109;-66
2023/07/30 09:51:03;;;;;;;7.82;2.20;;;22.90;99.90;;;;;;4989179;28;20037;-66
2023/07/30 09:53:34;;;;;;;7.50;1.60;;;22.90;99.90;;;;;;4988388;28;20030;-66
2023/07/30 09:56:03;;;;;;;5.03;1.48;;;22.90;99.90;;;;;;4987242;28;20439;-66
2023/07/30 09:58:30;;;;;;;10.07;1.70;;;22.70;99.90;;;;;;4989290;28;20026;-66
2023/07/30 10:00:59;;;;;;;3.97;1.67;;;22.60;99.90;;;;;;4989199;28;20106;-66
2023/07/30 10:03:25;;;;;;;6.80;1.45;;;22.80;99.90;;;;;;4990036;28;20027;-66
2023/07/30 10:06:02;;;;;;;3.50;1.33;;;22.60;99.90;;;;;;4980924;28;20035;-66
2023/07/30 10:08:31;;;;;;;8.15;1.60;;;22.20;99.90;;;;;;4987859;28;20026;-65
2023/07/30 10:10:58;;;;;;;9.13;2.00;;;22.70;99.90;;;;;;4988991;28;20035;-66
2023/07/30 10:13:24;;;;;;;5.43;1.40;;;22.90;99.90;;;;;;4985821;28;20122;-66
2023/07/30 10:15:50;;;;;;;6.75;1.70;;;23.30;99.90;;;;;;4982131;28;20053;-66
2023/07/30 10:18:16;;;;;;;4.78;1.55;;;23.80;99.40;;;;;;4988862;28;20048;-66
2023/07/30 10:20:52;;;;;;;5.78;1.23;;;24.10;99.90;;;;;;4988941;28;20027;-65
2023/07/30 10:23:18;;;;;;;5.57;1.33;;;24.20;97.80;;;;;;4968570;28;20054;-66
2023/07/30 10:25:46;;;;;;;9.43;1.38;;;23.60;95.00;;;;;;4988986;28;20031;-65
2023/07/30 10:28:31;;;;;;;5.97;1.25;;;22.80;97.40;;;;;;4987981;28;20100;-66
2023/07/30 10:30:59;;;;;;;6.97;1.45;;;22.30;98.30;;;;;;4989389;28;20049;-65
2023/07/30 10:33:43;;;;;;;4.47;1.38;;;21.90;98.20;;;;;;4989641;28;20038;-66
2023/07/30 10:36:10;;;;;;;10.43;2.20;;;21.60;99.40;;;;;;4979975;28;20142;-66
2023/07/30 10:38:36;;;;;;;4.88;1.75;;;21.70;99.90;;;;;;4987252;28;20128;-66
2023/07/30 10:41:01;;;;;;;7.03;1.08;;;21.60;99.60;;;;;;4989666;28;20622;-66
2023/07/30 10:43:28;;;;;;;7.15;1.40;;;21.40;99.90;;;;;;4982519;28;20018;-66
2023/07/30 10:45:54;;;;;;;9.70;1.20;;;21.50;99.90;;;;;;4990758;28;20113;-66
2023/07/30 10:48:33;;;;;;;5.25;1.20;;;21.30;99.90;;;;;;4992748;28;20121;-66
2023/07/30 10:51:05;;;;;;;6.25;0.95;;;21.30;99.90;;;;;;4986071;28;20022;-65
2023/07/30 10:53:32;;;;;;;5.45;1.38;;;21.00;99.90;;;;;;4973915;28;20038;-66
2023/07/30 10:56:03;;;;;;;5.78;1.48;;;21.20;99.90;;;;;;4991407;28;20088;-66
2023/07/30 10:58:34;;;;;;;9.82;1.08;;;21.40;99.90;;;;;;4992928;28;20035;-65
2023/07/30 11:01:06;;;;;;;4.25;1.60;;;21.30;99.90;;;;;;4987501;28;20023;-65
2023/07/30 11:03:33;;;;;;;8.00;1.20;;;21.20;99.90;;;;;;4985121;28;20157;-65
2023/07/30 11:05:59;;;;;;;7.63;1.15;;;21.20;99.90;;;;;;4971608;28;20484;-64
2023/07/30 11:08:42;;;;;;;6.10;1.10;;;21.10;99.90;;;;;;4987888;28;20085;-65
2023/07/30 11:11:10;;;;;;;6.28;1.27;;;21.40;99.90;;;;;;4975975;28;20528;-66
2023/07/30 11:13:46;;;;;;;5.32;1.40;;;21.50;99.80;;;;;;4966041;28;20030;-66
2023/07/30 11:16:12;;;;;;;5.22;1.17;;;21.80;99.60;;;;;;4985367;28;20499;-66
2023/07/30 11:18:39;;;;;;;7.70;1.52;;;21.80;99.50;;;;;;4992629;28;20027;-66
2023/07/30 11:21:10;;;;;;;4.07;1.30;;;21.70;99.20;;;;;;4991444;28;20025;-65
2023/07/30 11:23:36;;;;;;;5.57;1.17;;;21.80;98.80;;;;;;4967440;28;20141;-66
2023/07/30 11:26:04;;;;;;;4.93;1.30;;;21.80;99.50;;;;;;4989346;28;20038;-66
2023/07/30 11:28:34;;;;;;;5.25;1.00;;;22.30;99.90;;;;;;4989542;28;20106;-66
2023/07/30 11:31:08;;;;;;;9.48;1.42;;;22.50;99.90;;;;;;4989924;28;20035;-64
2023/07/30 11:33:35;;;;;;;4.82;1.20;;;22.40;98.60;;;;;;4992577;28;20030;-66
2023/07/30 11:36:02;;;;;;;4.63;1.15;;;22.50;98.60;;;;;;4990788;28;20069;-66
2023/07/30 11:38:29;;;;;;;8.50;1.27;;;22.30;98.30;;;;;;4990439;28;20041;-66
2023/07/30 11:40:56;;;;;;;4.47;0.95;;;22.40;98.30;;;;;;4991349;28;20530;-64
2023/07/30 11:43:22;;;;;;;4.28;1.02;;;22.30;96.50;;;;;;4982000;28;20441;-66
2023/07/30 11:45:48;;;;;;;3.00;0.98;;;22.30;99.50;;;;;;4980954;28;20034;-66
2023/07/30 11:48:14;;;;;;;9.45;1.13;;;22.30;96.70;;;;;;4988220;28;20019;-66
2023/07/30 11:50:57;;;;;;;4.93;1.00;;;22.00;97.30;;;;;;4990264;28;20498;-66
2023/07/30 11:53:44;;;;;;;6.60;1.08;;;21.80;98.80;;;;;;4984739;28;20562;-66
2023/07/30 11:56:16;;;;;;;6.65;1.50;;;21.90;97.80;;;;;;4990668;28;20121;-66
2023/07/30 11:58:42;;;;;;;11.68;1.00;;;22.00;98.60;;;;;;4991372;28;20019;-66
2023/07/30 12:01:08;;;;;;;3.42;0.95;;;22.00;98.50;;;;;;4989405;28;20092;-66
2023/07/30 12:03:33;;;;;;;3.80;1.40;;;21.90;98.70;;;;;;4991940;28;20027;-65
2023/07/30 12:06:05;;;;;;;5.35;1.27;;;21.70;99.40;;;;;;4990131;28;20038;-66
2023/07/30 12:08:33;;;;;;;3.50;0.93;;;21.30;99.60;;;;;;4988621;28;20108;-66
2023/07/30 12:11:06;;;;;;;4.97;1.27;;;21.00;99.80;;;;;;4988747;28;20022;-66
2023/07/30 12:13:32;;;;;;;3.80;0.93;;;21.00;99.90;;;;;;4986606;28;20034;-66
2023/07/30 12:15:58;;;;;;;5.25;1.40;;;20.90;99.90;;;;;;4991240;28;20104;-65
2023/07/30 12:18:24;;;;;;;3.92;1.40;;;20.80;99.90;;;;;;4990778;28;20630;-65
2023/07/30 12:20:51;;;;;;;2.40;0.90;;;20.80;99.90;;;;;;4990912;28;20037;-66
2023/07/30 12:23:17;;;;;;;3.00;1.10;;;20.80;99.70;;;;;;4966554;28;20526;-66
2023/07/30 12:25:43;;;;;;;2.88;0.73;;;20.80;99.60;;;;;;4990314;28;20030;-66
2023/07/30 12:28:09;;;;;;;4.25;0.77;;;20.70;99.90;;;;;;4987883;28;20172;-65
2023/07/30 12:30:36;;;;;;;5.00;1.45;;;20.50;99.90;;;;;;4988930;28;20563;-66
2023/07/30 12:33:03;;;;;;;3.30;0.90;;;20.40;99.90;;;;;;4988530;28;20043;-66
2023/07/30 12:35:29;;;;;;;5.40;1.70;;;20.70;99.90;;;;;;4972125;28;20446;-65
2023/07/30 12:37:54;;;;;;;8.93;1.13;;;21.10;99.90;;;;;;4988491;28;20314;-66
2023/07/30 12:40:20;;;;;;;5.18;1.00;;;21.60;99.30;;;;;;4988636;28;20041;-66
2023/07/30 12:42:45;;;;;;;4.40;1.00;;;22.00;99.20;;;;;;4988713;28;20026;-65